createdAt,value
2019-02-14T00:00:52.091Z,6.83
2019-02-14T00:03:57.253Z,7.73
2019-02-14T00:07:02.409Z,7.43
2019-02-14T00:10:07.735Z,8.10
2019-02-14T00:13:12.882Z,6.63
2019-02-14T00:16:18.013Z,6.73
2019-02-14T00:19:23.174Z,7.07
2019-02-14T00:22:28.331Z,7.67
2019-02-14T00:25:33.481Z,6.57
2019-02-14T00:28:38.956Z,6.67
2019-02-14T00:31:44.178Z,6.93
2019-02-14T00:34:49.329Z,6.40
2019-02-14T00:37:54.518Z,6.97
2019-02-14T00:40:59.617Z,6.97
2019-02-14T00:44:04.788Z,6.27
2019-02-14T00:47:09.930Z,6.03
2019-02-14T00:50:15.061Z,6.03
2019-02-14T00:53:20.215Z,4.53
2019-02-14T00:56:26.498Z,4.70
2019-02-14T00:59:32.728Z,5.40
2019-02-14T01:02:37.863Z,4.80
2019-02-14T01:05:42.996Z,5.17
2019-02-14T01:08:48.176Z,4.57
2019-02-14T01:11:53.337Z,4.67
2019-02-14T01:14:58.504Z,4.40
2019-02-14T01:18:03.652Z,4.30
2019-02-14T01:21:08.778Z,4.43
2019-02-14T01:24:13.894Z,4.73
2019-02-14T01:27:19.043Z,4.60
2019-02-14T01:30:24.154Z,3.70
2019-02-14T01:33:29.270Z,5.07
2019-02-14T01:36:34.563Z,4.60
2019-02-14T01:39:39.708Z,4.67
2019-02-14T01:42:44.958Z,4.23
2019-02-14T01:45:50.131Z,4.40
2019-02-14T01:48:55.338Z,4.27
2019-02-14T01:52:01.528Z,4.30
2019-02-14T01:55:06.724Z,4.97
2019-02-14T01:58:11.907Z,4.97
2019-02-14T02:01:17.063Z,4.67
2019-02-14T02:04:22.214Z,4.30
2019-02-14T02:07:27.325Z,4.27
2019-02-14T02:10:32.508Z,4.50
2019-02-14T02:13:37.591Z,4.67
2019-02-14T02:16:42.726Z,5.07
2019-02-14T02:19:47.896Z,4.70
2019-02-14T02:22:53.089Z,3.83
2019-02-14T02:25:58.169Z,4.50
2019-02-14T02:29:03.342Z,4.70
2019-02-14T02:32:08.518Z,4.43
2019-02-14T02:35:13.646Z,4.70
2019-02-14T02:38:19.910Z,4.43
2019-02-14T02:41:25.028Z,4.40
2019-02-14T02:44:30.304Z,4.53
2019-02-14T02:47:35.445Z,4.30
2019-02-14T02:50:40.753Z,4.40
2019-02-14T02:53:45.934Z,4.53
2019-02-14T02:56:51.128Z,3.90
2019-02-14T02:59:56.254Z,4.30
2019-02-14T03:03:01.359Z,4.70
2019-02-14T03:06:10.561Z,4.40
2019-02-14T03:09:13.351Z,4.57
2019-02-14T03:12:18.604Z,5.27
2019-02-14T03:15:23.713Z,4.00
2019-02-14T03:18:28.864Z,4.80
2019-02-14T03:21:34.008Z,4.47
2019-02-14T03:24:39.180Z,5.13
2019-02-14T03:27:44.396Z,5.10
2019-02-14T03:30:49.579Z,4.60
2019-02-14T03:33:54.727Z,5.20
2019-02-14T03:36:59.886Z,4.63
2019-02-14T03:40:05.679Z,4.47
2019-02-14T03:43:10.804Z,4.80
2019-02-14T03:46:15.956Z,3.97
2019-02-14T03:49:21.071Z,4.90
2019-02-14T03:52:26.235Z,4.70
2019-02-14T03:55:31.318Z,4.93
2019-02-14T03:58:36.515Z,6.27
2019-02-14T04:01:41.587Z,5.13
2019-02-14T04:04:46.735Z,5.30
2019-02-14T04:07:51.783Z,4.90
2019-02-14T04:10:56.957Z,4.80
2019-02-14T04:14:02.164Z,5.50
2019-02-14T04:17:07.254Z,5.50
2019-02-14T04:20:12.707Z,5.40
2019-02-14T04:23:17.885Z,5.33
2019-02-14T04:26:22.958Z,4.93
2019-02-14T04:29:28.177Z,4.60
2019-02-14T04:32:33.247Z,4.40
2019-02-14T04:35:38.377Z,4.60
2019-02-14T04:38:43.523Z,4.40
2019-02-14T04:41:48.681Z,4.43
2019-02-14T04:44:53.877Z,4.87
2019-02-14T04:47:58.966Z,4.73
2019-02-14T04:51:04.267Z,4.73
2019-02-14T04:54:09.417Z,5.00
2019-02-14T04:57:14.596Z,5.97
2019-02-14T05:00:19.728Z,5.93
2019-02-14T05:03:24.985Z,6.30
2019-02-14T05:06:31.201Z,6.07
2019-02-14T05:09:36.391Z,5.80
2019-02-14T05:12:41.538Z,5.97
2019-02-14T05:15:46.686Z,6.07
2019-02-14T05:18:51.833Z,6.53
2019-02-14T05:21:56.982Z,6.07
2019-02-14T05:25:02.102Z,5.40
2019-02-14T05:28:07.215Z,5.63
2019-02-14T05:31:12.360Z,6.07
2019-02-14T05:34:17.518Z,5.40
2019-02-14T05:37:22.720Z,5.73
2019-02-14T05:40:27.933Z,5.50
2019-02-14T05:43:33.037Z,4.90
2019-02-14T05:46:38.177Z,5.40
2019-02-14T05:49:43.292Z,5.33
2019-02-14T05:52:48.436Z,4.80
2019-02-14T05:55:53.632Z,4.73
2019-02-14T05:58:58.814Z,5.70
2019-02-14T06:02:04.013Z,4.33
2019-02-14T06:05:09.588Z,5.40
2019-02-14T06:08:14.744Z,4.27
2019-02-14T06:11:19.843Z,4.83
2019-02-14T06:14:24.993Z,8.70
2019-02-14T06:17:30.173Z,8.27
2019-02-14T06:20:35.344Z,9.07
2019-02-14T06:23:40.487Z,6.60
2019-02-14T06:26:45.692Z,6.30
2019-02-14T06:29:50.861Z,6.47
2019-02-14T06:32:57.082Z,9.40
2019-02-14T06:36:02.211Z,13.13
2019-02-14T06:39:07.554Z,11.57
2019-02-14T06:42:12.721Z,9.90
2019-02-14T06:45:17.867Z,9.43
2019-02-14T06:48:23.119Z,11.13
2019-02-14T06:51:28.262Z,9.07
2019-02-14T06:54:33.438Z,10.97
2019-02-14T06:57:38.599Z,10.13
2019-02-14T07:00:43.803Z,8.40
2019-02-14T07:03:48.931Z,9.10
2019-02-14T07:06:54.080Z,8.63
2019-02-14T07:09:59.178Z,8.10
2019-02-14T07:13:04.377Z,9.20
2019-02-14T07:16:09.728Z,9.40
2019-02-14T07:19:14.873Z,8.03
2019-02-14T07:22:20.103Z,6.77
2019-02-14T07:25:25.313Z,7.13
2019-02-14T07:28:30.511Z,8.77
2019-02-14T07:31:35.677Z,7.97
2019-02-14T07:34:40.809Z,8.17
2019-02-14T07:37:45.972Z,7.23
2019-02-14T07:40:51.132Z,7.20
2019-02-14T07:43:56.290Z,6.70
2019-02-14T07:47:01.503Z,7.77
2019-02-14T07:50:07.217Z,6.87
2019-02-14T07:53:12.371Z,8.77
2019-02-14T07:56:17.579Z,11.40
2019-02-14T07:59:22.871Z,11.50
2019-02-14T08:02:28.126Z,9.37
2019-02-14T08:05:33.265Z,7.43
2019-02-14T08:08:38.434Z,6.37
2019-02-14T08:11:43.659Z,6.97
2019-02-14T08:14:48.864Z,7.87
2019-02-14T08:17:54.046Z,14.07
2019-02-14T08:20:59.222Z,9.37
2019-02-14T08:24:04.421Z,7.87
2019-02-14T08:27:09.514Z,7.17
2019-02-14T08:30:15.854Z,5.90
2019-02-14T08:33:21.003Z,5.70
2019-02-14T08:36:26.185Z,7.60
2019-02-14T08:39:31.459Z,11.90
2019-02-14T08:42:36.600Z,10.13
2019-02-14T08:45:41.763Z,9.70
2019-02-14T08:48:46.918Z,9.00
2019-02-14T08:51:52.308Z,10.87
2019-02-14T08:54:57.531Z,9.97
2019-02-14T08:58:02.656Z,6.93
2019-02-14T09:01:08.862Z,6.10
2019-02-14T09:04:13.986Z,7.03
2019-02-14T09:07:19.184Z,8.77
2019-02-14T09:10:25.372Z,11.60
2019-02-14T09:13:30.492Z,9.73
2019-02-14T09:16:35.608Z,5.27
2019-02-14T09:19:41.867Z,5.37
2019-02-14T09:22:47.126Z,5.40
2019-02-14T09:25:52.309Z,6.23
2019-02-14T09:28:57.563Z,4.83
2019-02-14T09:32:02.750Z,4.73
2019-02-14T09:35:08.387Z,5.30
2019-02-14T09:38:13.610Z,29.83
2019-02-14T09:41:18.740Z,5.47
2019-02-14T09:44:23.981Z,5.90
2019-02-14T09:47:29.122Z,7.13
2019-02-14T09:50:34.268Z,5.63
2019-02-14T09:53:39.384Z,6.13
2019-02-14T09:56:44.559Z,6.40
2019-02-14T09:59:49.753Z,6.10
2019-02-14T10:02:54.913Z,5.37
2019-02-14T10:06:00.061Z,6.57
2019-02-14T10:09:07.827Z,8.27
2019-02-14T10:12:13.026Z,6.37
2019-02-14T10:15:18.186Z,7.67
2019-02-14T10:18:23.448Z,7.97
2019-02-14T10:21:28.635Z,7.30
2019-02-14T10:24:33.803Z,7.60
2019-02-14T10:27:39.006Z,7.30
2019-02-14T10:30:44.084Z,8.10
2019-02-14T10:33:49.270Z,8.70
2019-02-14T10:36:54.380Z,9.10
2019-02-14T10:39:59.615Z,15.30
2019-02-14T10:43:04.784Z,10.87
2019-02-14T10:46:09.984Z,7.90
2019-02-14T10:49:15.141Z,9.40
2019-02-14T10:52:20.305Z,9.03
2019-02-14T10:55:25.436Z,9.63
2019-02-14T10:58:30.573Z,9.43
2019-02-14T11:01:35.722Z,8.50
2019-02-14T11:04:40.874Z,8.30
2019-02-14T11:07:46.137Z,8.10
2019-02-14T11:10:51.294Z,7.57
2019-02-14T11:13:56.454Z,7.53
2019-02-14T11:17:01.723Z,8.30
2019-02-14T11:20:07.662Z,8.97
2019-02-14T11:23:12.828Z,11.23
2019-02-14T11:26:17.951Z,10.87
2019-02-14T11:29:23.075Z,11.43
2019-02-14T11:32:29.154Z,9.93
2019-02-14T11:35:34.383Z,9.37
2019-02-14T11:38:40.853Z,9.23
2019-02-14T11:41:46.136Z,10.50
2019-02-14T11:44:51.325Z,10.33
2019-02-14T11:47:56.460Z,9.33
2019-02-14T11:51:01.636Z,9.93
2019-02-14T11:54:06.770Z,10.67
2019-02-14T11:57:12.043Z,11.00
2019-02-14T12:00:20.998Z,10.53
2019-02-14T12:03:26.182Z,10.70
2019-02-14T12:06:31.355Z,10.30
2019-02-14T12:09:36.459Z,10.13
2019-02-14T12:12:41.558Z,10.60
2019-02-14T12:15:46.726Z,9.73
2019-02-14T12:18:51.917Z,9.80
2019-02-14T12:21:57.060Z,10.67
2019-02-14T12:25:02.246Z,22.33
2019-02-14T12:28:07.511Z,12.80
2019-02-14T12:31:12.641Z,10.00
2019-02-14T12:34:17.743Z,9.77
2019-02-14T12:37:22.885Z,9.77
2019-02-14T12:40:27.979Z,10.50
2019-02-14T12:43:33.253Z,10.20
2019-02-14T12:46:38.424Z,10.50
2019-02-14T12:49:43.553Z,10.27
2019-02-14T12:52:48.707Z,10.50
2019-02-14T12:55:53.923Z,10.43
2019-02-14T12:58:59.105Z,10.60
2019-02-14T13:02:07.462Z,11.27
2019-02-14T13:05:12.746Z,11.43
2019-02-14T13:08:18.063Z,11.87
2019-02-14T13:11:23.284Z,11.37
2019-02-14T13:14:28.513Z,10.77
2019-02-14T13:17:33.788Z,11.70
2019-02-14T13:20:38.983Z,11.10
2019-02-14T13:23:44.160Z,13.23
2019-02-14T13:26:49.340Z,11.43
2019-02-14T13:29:54.520Z,11.13
2019-02-14T13:32:59.648Z,11.37
2019-02-14T13:36:06.088Z,11.50
2019-02-14T13:39:11.767Z,11.70
2019-02-14T13:42:16.977Z,11.70
2019-02-14T13:45:23.371Z,11.30
2019-02-14T13:48:29.849Z,11.70
2019-02-14T13:51:35.128Z,11.40
2019-02-14T13:54:40.282Z,11.30
2019-02-14T13:57:46.666Z,12.90
2019-02-14T14:00:52.029Z,14.40
2019-02-14T14:03:57.201Z,11.33
2019-02-14T14:07:02.343Z,11.23
2019-02-14T14:10:08.223Z,10.43
2019-02-14T14:13:13.412Z,10.93
2019-02-14T14:16:18.793Z,10.93
2019-02-14T14:19:24.000Z,9.77
2019-02-14T14:22:29.170Z,10.80
2019-02-14T14:25:34.296Z,10.87
2019-02-14T14:28:39.836Z,10.30
2019-02-14T14:31:45.099Z,11.13
2019-02-14T14:34:50.415Z,11.67
2019-02-14T14:37:55.631Z,9.33
2019-02-14T14:41:00.794Z,10.77
2019-02-14T14:44:15.177Z,9.53
2019-02-14T14:47:22.427Z,9.70
2019-02-14T14:50:27.604Z,8.20
2019-02-14T14:53:32.844Z,8.57
2019-02-14T14:56:38.009Z,8.60
2019-02-14T14:59:43.124Z,8.77
2019-02-14T15:02:48.351Z,9.20
2019-02-14T15:05:53.553Z,8.23
2019-02-14T15:08:58.739Z,8.40
2019-02-14T15:12:03.795Z,8.00
2019-02-14T15:15:08.998Z,7.53
2019-02-14T15:18:14.277Z,7.57
2019-02-14T15:21:19.488Z,7.00
2019-02-14T15:24:24.679Z,8.17
2019-02-14T15:27:29.823Z,8.60
2019-02-14T15:30:35.007Z,9.33
2019-02-14T15:33:40.176Z,9.50
2019-02-14T15:36:46.889Z,8.50
2019-02-14T15:39:52.490Z,8.73
2019-02-14T15:42:57.653Z,8.57
2019-02-14T15:46:02.812Z,8.83
2019-02-14T15:49:07.983Z,9.23
2019-02-14T15:52:13.159Z,8.97
2019-02-14T15:55:19.440Z,9.10
2019-02-14T15:58:25.329Z,9.97
2019-02-14T16:01:30.528Z,10.13
2019-02-14T16:04:36.820Z,10.53
2019-02-14T16:07:42.124Z,9.70
2019-02-14T16:10:49.160Z,10.83
2019-02-14T16:13:54.985Z,11.03
2019-02-14T16:17:00.958Z,11.00
2019-02-14T16:20:06.476Z,11.53
2019-02-14T16:23:11.661Z,25.57
2019-02-14T16:26:17.215Z,11.87
2019-02-14T16:29:24.569Z,10.53
2019-02-14T16:32:29.388Z,14.53
2019-02-14T16:35:34.559Z,15.33
2019-02-14T16:38:39.745Z,12.57
2019-02-14T16:41:44.887Z,13.10
2019-02-14T16:44:50.127Z,12.97
2019-02-14T16:47:55.425Z,13.77
2019-02-14T16:51:00.612Z,13.20
2019-02-14T16:54:05.816Z,17.60
2019-02-14T16:57:11.179Z,20.27
2019-02-14T17:00:16.532Z,25.23
2019-02-14T17:03:21.786Z,31.80
2019-02-14T17:06:27.032Z,30.87
2019-02-14T17:09:32.253Z,18.77
2019-02-14T17:12:37.521Z,24.70
2019-02-14T17:15:42.697Z,26.03
2019-02-14T17:18:47.928Z,21.37
2019-02-14T17:21:53.968Z,21.13
2019-02-14T17:24:59.752Z,38.53
2019-02-14T17:28:05.052Z,39.37
2019-02-14T17:31:10.217Z,27.70
2019-02-14T17:34:15.609Z,27.13
2019-02-14T17:37:20.750Z,19.80
2019-02-14T17:40:25.892Z,21.73
2019-02-14T17:43:31.167Z,16.50
2019-02-14T17:46:36.392Z,13.60
2019-02-14T17:49:41.722Z,25.20
2019-02-14T17:52:47.016Z,23.20
2019-02-14T17:55:52.282Z,17.03
2019-02-14T17:58:57.495Z,14.23
2019-02-14T18:02:02.666Z,13.77
2019-02-14T18:05:08.595Z,14.00
2019-02-14T18:08:13.740Z,14.23
2019-02-14T18:11:18.992Z,14.80
2019-02-14T18:14:24.100Z,17.23
2019-02-14T18:17:29.294Z,18.70
2019-02-14T18:20:34.533Z,32.30
2019-02-14T18:23:39.745Z,28.53
2019-02-14T18:26:44.905Z,27.07
2019-02-14T18:29:50.128Z,34.43
2019-02-14T18:32:55.263Z,22.93
2019-02-14T18:36:00.564Z,22.53
2019-02-14T18:39:07.837Z,18.80
2019-02-14T18:42:13.177Z,20.80
2019-02-14T18:45:18.321Z,24.80
2019-02-14T18:48:24.661Z,26.97
2019-02-14T18:51:29.781Z,27.83
2019-02-14T18:54:34.953Z,32.77
2019-02-14T18:57:40.167Z,32.70
2019-02-14T19:00:45.443Z,39.27
2019-02-14T19:03:50.645Z,40.23
2019-02-14T19:06:55.827Z,31.97
2019-02-14T19:10:01.097Z,31.33
2019-02-14T19:13:06.334Z,28.50
2019-02-14T19:16:11.769Z,30.13
2019-02-14T19:19:16.977Z,29.50
2019-02-14T19:22:22.233Z,31.13
2019-02-14T19:25:29.637Z,30.40
2019-02-14T19:28:34.365Z,33.20
2019-02-14T19:31:39.564Z,37.10
2019-02-14T19:34:44.759Z,34.40
2019-02-14T19:37:50.039Z,44.77
2019-02-14T19:40:55.276Z,42.07
2019-02-14T19:44:00.399Z,29.63
2019-02-14T19:47:05.553Z,33.47
2019-02-14T19:50:10.783Z,27.93
2019-02-14T19:53:15.974Z,23.77
2019-02-14T19:56:21.137Z,32.47
2019-02-14T19:59:26.424Z,29.60
2019-02-14T20:02:31.612Z,25.77
2019-02-14T20:05:36.871Z,29.50
2019-02-14T20:08:42.037Z,31.03
2019-02-14T20:11:49.718Z,37.90
2019-02-14T20:14:54.950Z,31.40
2019-02-14T20:18:00.164Z,28.03
2019-02-14T20:21:05.337Z,30.17
2019-02-14T20:24:10.601Z,31.57
2019-02-14T20:27:15.792Z,28.43
2019-02-14T20:30:22.077Z,32.93
2019-02-14T20:33:27.280Z,31.47
2019-02-14T20:36:32.521Z,31.20
2019-02-14T20:39:37.789Z,30.60
2019-02-14T20:42:43.017Z,28.33
2019-02-14T20:45:48.225Z,25.40
2019-02-14T20:48:53.470Z,19.23
2019-02-14T20:51:58.739Z,15.20
2019-02-14T20:55:03.979Z,13.93
2019-02-14T20:58:10.944Z,13.40
2019-02-14T21:01:16.161Z,15.63
2019-02-14T21:04:22.140Z,14.63
2019-02-14T21:07:27.303Z,15.73
2019-02-14T21:10:32.526Z,15.67
2019-02-14T21:13:37.799Z,16.13
2019-02-14T21:16:42.940Z,16.73
2019-02-14T21:19:48.239Z,19.83
2019-02-14T21:22:53.407Z,18.47
2019-02-14T21:25:58.673Z,19.43
2019-02-14T21:29:03.857Z,18.47
2019-02-14T21:32:09.001Z,28.00
2019-02-14T21:35:14.385Z,20.07
2019-02-14T21:38:20.591Z,22.40
2019-02-14T21:41:25.789Z,24.17
2019-02-14T21:44:31.059Z,22.80
2019-02-14T21:47:36.268Z,23.33
2019-02-14T21:50:41.567Z,21.33
2019-02-14T21:53:46.743Z,17.17
2019-02-14T21:56:51.869Z,14.87
2019-02-14T21:59:56.958Z,19.10
2019-02-14T22:03:02.237Z,19.80
2019-02-14T22:06:07.576Z,18.30
2019-02-14T22:09:12.872Z,18.70
2019-02-14T22:12:37.305Z,17.77
2019-02-14T22:15:24.967Z,20.07
2019-02-14T22:18:30.114Z,19.07
2019-02-14T22:21:35.380Z,19.57
2019-02-14T22:24:42.109Z,18.60
2019-02-14T22:27:47.302Z,19.13
2019-02-14T22:30:52.517Z,16.30
2019-02-14T22:33:57.676Z,17.93
2019-02-14T22:37:02.798Z,19.03
2019-02-14T22:40:08.111Z,17.63
2019-02-14T22:43:13.365Z,21.10
2019-02-14T22:46:18.546Z,21.27
2019-02-14T22:49:23.749Z,21.37
2019-02-14T22:52:28.863Z,19.30
2019-02-14T22:55:34.020Z,19.43
2019-02-14T22:58:39.182Z,20.57
2019-02-14T23:01:46.643Z,19.97
2019-02-14T23:04:51.868Z,19.90
2019-02-14T23:07:57.079Z,18.13
2019-02-14T23:11:02.276Z,17.70
2019-02-14T23:14:07.455Z,16.40
2019-02-14T23:17:12.656Z,17.23
2019-02-14T23:20:17.813Z,16.83
2019-02-14T23:23:23.001Z,16.87
2019-02-14T23:26:28.217Z,16.27
2019-02-14T23:29:33.439Z,16.80
2019-02-14T23:32:38.629Z,15.33
2019-02-14T23:35:43.735Z,16.27
2019-02-14T23:38:48.861Z,18.50
2019-02-14T23:41:54.084Z,16.93
2019-02-14T23:44:59.291Z,15.83
2019-02-14T23:48:04.507Z,16.33
2019-02-14T23:51:09.605Z,16.10
2019-02-14T23:54:14.939Z,15.00
2019-02-14T23:57:20.151Z,17.20
